createdAt,value
2018-06-04T00:02:25.306Z,4.20
2018-06-04T00:04:53.856Z,3.90
2018-06-04T00:07:22.058Z,4.63
2018-06-04T00:09:50.607Z,4.50
2018-06-04T00:12:19.106Z,4.23
2018-06-04T00:14:47.241Z,3.93
2018-06-04T00:17:15.719Z,4.23
2018-06-04T00:19:44.225Z,4.63
2018-06-04T00:22:12.791Z,4.40
2018-06-04T00:24:41.271Z,4.70
2018-06-04T00:27:09.784Z,4.67
2018-06-04T00:29:38.234Z,3.83
2018-06-04T00:32:06.801Z,4.33
2018-06-04T00:34:35.320Z,4.43
2018-06-04T00:37:03.792Z,4.23
2018-06-04T00:39:32.224Z,5.13
2018-06-04T00:42:00.691Z,4.50
2018-06-04T00:44:29.125Z,4.70
2018-06-04T00:46:57.312Z,4.57
2018-06-04T00:49:25.753Z,4.17
2018-06-04T00:51:54.254Z,4.70
2018-06-04T00:54:23.523Z,4.70
2018-06-04T00:56:52.043Z,5.33
2018-06-04T00:59:20.494Z,4.80
2018-06-04T01:01:48.957Z,4.27
2018-06-04T01:04:17.410Z,4.90
2018-06-04T01:06:45.557Z,5.30
2018-06-04T01:09:14.039Z,4.67
2018-06-04T01:11:42.521Z,4.80
2018-06-04T01:14:10.966Z,5.20
2018-06-04T01:16:39.453Z,3.80
2018-06-04T01:19:07.945Z,4.50
2018-06-04T01:21:36.489Z,5.03
2018-06-04T01:24:04.995Z,4.50
2018-06-04T01:26:33.120Z,5.63
2018-06-04T01:29:01.609Z,5.33
2018-06-04T01:31:30.100Z,4.90
2018-06-04T01:33:58.610Z,4.70
2018-06-04T01:36:27.075Z,5.27
2018-06-04T01:38:55.543Z,4.17
2018-06-04T01:41:23.990Z,5.00
2018-06-04T01:43:52.514Z,5.30
2018-06-04T01:46:20.984Z,4.50
2018-06-04T01:48:49.465Z,4.40
2018-06-04T01:51:17.949Z,4.07
2018-06-04T01:53:46.422Z,4.00
2018-06-04T01:56:14.854Z,4.83
2018-06-04T01:58:43.328Z,4.40
2018-06-04T02:01:11.792Z,4.87
2018-06-04T02:03:40.288Z,4.40
2018-06-04T02:06:08.751Z,4.50
2018-06-04T02:08:37.184Z,4.20
2018-06-04T02:11:05.650Z,4.70
2018-06-04T02:13:34.080Z,4.50
2018-06-04T02:16:02.683Z,4.40
2018-06-04T02:18:31.164Z,4.33
2018-06-04T02:20:59.344Z,3.83
2018-06-04T02:23:27.835Z,4.07
2018-06-04T02:25:56.134Z,4.40
2018-06-04T02:28:24.573Z,4.70
2018-06-04T02:30:52.725Z,4.20
2018-06-04T02:33:21.280Z,5.30
2018-06-04T02:35:49.788Z,5.20
2018-06-04T02:38:18.261Z,5.43
2018-06-04T02:40:46.731Z,4.70
2018-06-04T02:43:15.232Z,5.37
2018-06-04T02:45:43.675Z,4.93
2018-06-04T02:48:12.239Z,4.37
2018-06-04T02:50:40.727Z,4.97
2018-06-04T02:53:09.177Z,4.90
2018-06-04T02:55:37.711Z,4.83
2018-06-04T02:58:06.212Z,4.40
2018-06-04T03:00:34.404Z,4.07
2018-06-04T03:03:02.829Z,3.90
2018-06-04T03:05:31.310Z,4.50
2018-06-04T03:07:59.823Z,3.87
2018-06-04T03:10:28.285Z,4.30
2018-06-04T03:12:56.784Z,4.97
2018-06-04T03:15:25.891Z,4.40
2018-06-04T03:17:54.459Z,3.90
2018-06-04T03:20:22.922Z,4.47
2018-06-04T03:22:51.400Z,4.10
2018-06-04T03:25:19.856Z,5.13
2018-06-04T03:27:48.021Z,3.90
2018-06-04T03:30:16.151Z,4.30
2018-06-04T03:32:44.643Z,4.63
2018-06-04T03:35:13.109Z,4.10
2018-06-04T03:37:41.565Z,4.30
2018-06-04T03:40:10.078Z,4.27
2018-06-04T03:42:38.535Z,4.63
2018-06-04T03:45:06.681Z,4.57
2018-06-04T03:47:35.138Z,4.30
2018-06-04T03:50:03.662Z,4.10
2018-06-04T03:52:32.165Z,4.27
2018-06-04T03:55:00.620Z,4.93
2018-06-04T03:57:29.140Z,4.20
2018-06-04T03:59:57.617Z,4.90
2018-06-04T04:02:25.780Z,3.60
2018-06-04T04:04:54.215Z,4.00
2018-06-04T04:07:22.719Z,4.27
2018-06-04T04:09:51.217Z,3.57
2018-06-04T04:12:19.696Z,3.50
2018-06-04T04:17:29.828Z,3.50
2018-06-04T04:19:57.972Z,3.80
2018-06-04T04:22:26.541Z,5.83
2018-06-04T04:24:55.046Z,4.53
2018-06-04T04:27:23.503Z,3.70
2018-06-04T04:29:51.971Z,3.00
2018-06-04T04:32:20.471Z,4.00
2018-06-04T04:34:48.926Z,4.20
2018-06-04T04:37:17.050Z,3.93
2018-06-04T04:39:45.560Z,3.73
2018-06-04T04:42:14.010Z,3.43
2018-06-04T04:44:42.472Z,3.57
2018-06-04T04:47:10.969Z,3.60
2018-06-04T04:49:39.472Z,3.83
2018-06-04T04:52:08.098Z,3.37
2018-06-04T04:54:36.534Z,3.30
2018-06-04T04:57:05.029Z,3.87
2018-06-04T04:59:33.669Z,3.40
2018-06-04T05:02:02.323Z,2.97
2018-06-04T05:04:30.858Z,3.33
2018-06-04T05:06:59.281Z,3.37
2018-06-04T05:09:27.817Z,3.67
2018-06-04T05:11:56.300Z,3.70
2018-06-04T05:14:24.853Z,3.20
2018-06-04T05:16:53.306Z,4.53
2018-06-04T05:19:21.897Z,3.70
2018-06-04T05:21:50.381Z,3.60
2018-06-04T05:24:18.868Z,4.23
2018-06-04T05:26:47.429Z,3.73
2018-06-04T05:29:15.614Z,4.80
2018-06-04T05:31:44.591Z,4.30
2018-06-04T05:34:12.785Z,4.53
2018-06-04T05:36:40.991Z,3.50
2018-06-04T05:39:10.257Z,4.30
2018-06-04T05:41:38.421Z,4.70
2018-06-04T05:44:06.630Z,4.70
2018-06-04T05:46:41.538Z,4.80
2018-06-04T05:49:10.015Z,4.50
2018-06-04T05:51:38.521Z,3.80
2018-06-04T05:54:06.711Z,5.40
2018-06-04T05:56:34.838Z,4.40
2018-06-04T05:59:03.322Z,4.40
2018-06-04T06:01:31.822Z,4.30
2018-06-04T06:04:00.596Z,4.17
2018-06-04T06:06:29.061Z,3.97
2018-06-04T06:08:57.533Z,3.23
2018-06-04T06:11:25.971Z,4.47
2018-06-04T06:13:54.404Z,3.47
2018-06-04T06:16:22.859Z,2.87
2018-06-04T06:18:51.318Z,4.10
2018-06-04T06:21:20.683Z,5.20
2018-06-04T06:23:49.137Z,3.10
2018-06-04T06:26:17.332Z,4.30
2018-06-04T06:28:45.455Z,3.27
2018-06-04T06:31:13.887Z,3.70
2018-06-04T06:33:42.017Z,3.93
2018-06-04T06:36:10.464Z,3.47
2018-06-04T06:38:38.915Z,3.50
2018-06-04T06:41:08.001Z,3.83
2018-06-04T06:43:36.584Z,3.83
2018-06-04T06:46:05.146Z,4.13
2018-06-04T06:48:33.619Z,3.07
2018-06-04T06:51:02.071Z,3.17
2018-06-04T06:53:30.539Z,3.80
2018-06-04T06:55:58.690Z,4.10
2018-06-04T06:58:27.152Z,4.00
2018-06-04T07:00:55.741Z,3.00
2018-06-04T07:03:24.769Z,3.50
2018-06-04T07:05:53.197Z,3.30
2018-06-04T07:08:21.403Z,3.33
2018-06-04T07:10:49.833Z,3.50
2018-06-04T07:13:18.298Z,3.80
2018-06-04T07:15:46.830Z,3.50
2018-06-04T07:18:15.035Z,3.53
2018-06-04T07:20:43.490Z,3.20
2018-06-04T07:23:11.674Z,2.87
2018-06-04T07:25:39.913Z,2.87
2018-06-04T07:28:08.379Z,3.13
2018-06-04T07:30:36.863Z,3.30
2018-06-04T07:33:05.397Z,3.40
2018-06-04T07:35:33.853Z,3.77
2018-06-04T07:38:02.480Z,3.67
2018-06-04T07:40:30.623Z,3.07
2018-06-04T07:42:59.157Z,3.80
2018-06-04T07:45:27.619Z,3.97
2018-06-04T07:47:56.123Z,3.97
2018-06-04T07:50:24.609Z,2.80
2018-06-04T07:52:52.929Z,2.90
2018-06-04T07:55:21.365Z,3.43
2018-06-04T07:57:49.834Z,3.50
2018-06-04T08:00:18.323Z,3.30
2018-06-04T08:02:46.777Z,4.00
2018-06-04T08:05:15.243Z,3.10
2018-06-04T08:07:43.692Z,2.70
2018-06-04T08:10:12.175Z,3.13
2018-06-04T08:12:40.348Z,3.63
2018-06-04T08:15:08.794Z,3.30
2018-06-04T08:17:37.254Z,3.20
2018-06-04T08:20:05.751Z,3.00
2018-06-04T08:22:34.231Z,3.40
2018-06-04T08:25:02.883Z,3.77
2018-06-04T08:27:31.119Z,3.57
2018-06-04T08:29:59.571Z,3.30
2018-06-04T08:32:28.066Z,3.30
2018-06-04T08:34:56.562Z,3.00
2018-06-04T08:37:25.015Z,3.63
2018-06-04T08:39:53.223Z,3.03
2018-06-04T08:42:21.929Z,3.40
2018-06-04T08:44:51.024Z,3.30
2018-06-04T08:47:19.521Z,3.70
2018-06-04T08:49:47.975Z,3.50
2018-06-04T08:52:16.571Z,3.70
2018-06-04T08:54:45.075Z,3.37
2018-06-04T08:57:13.535Z,3.03
2018-06-04T08:59:42.019Z,3.73
2018-06-04T09:02:10.499Z,2.63
2018-06-04T09:04:39.097Z,3.13
2018-06-04T09:07:07.546Z,3.10
2018-06-04T09:09:35.830Z,3.03
2018-06-04T09:12:03.956Z,4.03
2018-06-04T09:14:32.413Z,3.03
2018-06-04T09:17:00.890Z,3.47
2018-06-04T09:19:29.026Z,3.00
2018-06-04T09:21:57.483Z,3.10
2018-06-04T09:24:25.914Z,3.30
2018-06-04T09:26:54.446Z,2.90
2018-06-04T09:29:23.635Z,3.80
2018-06-04T09:31:52.260Z,3.30
2018-06-04T09:34:20.727Z,2.97
2018-06-04T09:36:49.190Z,3.00
2018-06-04T09:39:17.671Z,2.83
2018-06-04T09:41:45.887Z,3.53
2018-06-04T09:44:14.356Z,3.23
2018-06-04T09:46:42.988Z,3.83
2018-06-04T09:49:11.451Z,3.70
2018-06-04T09:51:39.941Z,3.20
2018-06-04T09:54:08.482Z,4.03
2018-06-04T09:56:36.629Z,3.30
2018-06-04T09:59:05.453Z,4.00
2018-06-04T10:01:34.021Z,3.30
2018-06-04T10:04:02.613Z,3.57
2018-06-04T10:06:30.803Z,3.20
2018-06-04T10:08:59.002Z,3.97
2018-06-04T10:11:27.564Z,3.23
2018-06-04T10:13:55.802Z,4.20
2018-06-04T10:16:24.276Z,3.43
2018-06-04T10:18:52.712Z,3.80
2018-06-04T10:21:20.887Z,3.83
2018-06-04T10:23:49.092Z,4.20
2018-06-04T10:26:17.590Z,4.27
2018-06-04T10:28:46.073Z,2.90
2018-06-04T10:31:14.528Z,4.17
2018-06-04T10:33:42.709Z,3.20
2018-06-04T10:36:11.204Z,2.70
2018-06-04T10:38:39.393Z,3.33
2018-06-04T10:41:07.855Z,3.53
2018-06-04T10:43:36.088Z,3.30
2018-06-04T10:46:04.613Z,2.90
2018-06-04T10:48:32.761Z,3.87
2018-06-04T10:51:01.268Z,3.70
2018-06-04T10:53:29.888Z,3.70
2018-06-04T10:55:58.050Z,3.03
2018-06-04T10:58:26.260Z,3.80
2018-06-04T11:00:54.738Z,3.60
2018-06-04T11:03:23.187Z,4.07
2018-06-04T11:05:51.668Z,3.50
2018-06-04T11:08:20.177Z,3.53
2018-06-04T11:10:48.340Z,2.67
2018-06-04T11:13:16.518Z,3.27
2018-06-04T11:15:45.008Z,3.07
2018-06-04T11:18:13.174Z,3.13
2018-06-04T11:20:41.676Z,2.60
2018-06-04T11:23:09.948Z,2.50
2018-06-04T11:25:38.442Z,3.10
2018-06-04T11:28:06.930Z,2.80
2018-06-04T11:30:35.101Z,2.73
2018-06-04T11:33:03.570Z,2.73
2018-06-04T11:35:32.214Z,2.80
2018-06-04T11:38:00.690Z,2.40
2018-06-04T11:40:29.198Z,2.77
2018-06-04T11:42:57.704Z,2.10
2018-06-04T11:45:26.169Z,2.47
2018-06-04T11:47:54.623Z,2.43
2018-06-04T11:50:22.835Z,2.63
2018-06-04T11:52:51.312Z,2.83
2018-06-04T11:55:19.815Z,3.00
2018-06-04T11:57:48.385Z,2.97
2018-06-04T12:00:16.860Z,2.40
2018-06-04T12:02:45.321Z,2.90
2018-06-04T12:05:13.511Z,2.53
2018-06-04T12:07:42.047Z,2.60
2018-06-04T12:10:10.488Z,2.47
2018-06-04T12:12:38.660Z,2.53
2018-06-04T12:15:06.854Z,2.67
2018-06-04T12:17:35.333Z,2.67
2018-06-04T12:20:03.860Z,2.40
2018-06-04T12:22:32.341Z,2.40
2018-06-04T12:25:00.789Z,2.70
2018-06-04T12:27:29.266Z,2.77
2018-06-04T12:29:57.413Z,2.40
2018-06-04T12:32:25.876Z,2.17
2018-06-04T12:34:54.500Z,3.07
2018-06-04T12:37:22.982Z,2.67
2018-06-04T12:39:51.478Z,2.67
2018-06-04T12:42:19.643Z,3.20
2018-06-04T12:44:48.105Z,2.50
2018-06-04T12:47:17.141Z,2.77
2018-06-04T12:49:45.334Z,2.60
2018-06-04T12:52:13.829Z,3.40
2018-06-04T12:54:42.287Z,3.70
2018-06-04T12:57:10.456Z,2.83
2018-06-04T12:59:38.921Z,3.43
2018-06-04T13:02:07.435Z,4.70
2018-06-04T13:04:35.607Z,4.67
2018-06-04T13:07:04.127Z,4.77
2018-06-04T13:09:32.627Z,4.70
2018-06-04T13:12:01.089Z,4.00
2018-06-04T13:14:29.240Z,4.80
2018-06-04T13:16:57.708Z,4.47
2018-06-04T13:19:26.165Z,5.03
2018-06-04T13:22:01.149Z,4.70
2018-06-04T13:24:29.660Z,4.23
2018-06-04T13:26:58.105Z,4.33
2018-06-04T13:29:26.588Z,4.23
2018-06-04T13:31:55.037Z,4.70
2018-06-04T13:34:23.504Z,5.23
2018-06-04T13:36:51.982Z,3.90
2018-06-04T13:39:20.190Z,4.93
2018-06-04T13:41:48.656Z,5.37
2018-06-04T13:44:17.143Z,4.30
2018-06-04T13:46:45.622Z,4.97
2018-06-04T13:49:14.150Z,4.13
2018-06-04T13:51:43.328Z,4.70
2018-06-04T13:54:11.978Z,4.50
2018-06-04T13:56:40.115Z,4.17
2018-06-04T13:59:08.599Z,4.00
2018-06-04T14:01:37.096Z,4.20
2018-06-04T14:04:05.593Z,3.60
2018-06-04T14:06:34.055Z,3.33
2018-06-04T14:09:02.545Z,2.87
2018-06-04T14:11:31.053Z,3.70
2018-06-04T14:13:59.502Z,3.43
2018-06-04T14:16:28.650Z,3.90
2018-06-04T14:18:56.782Z,3.60
2018-06-04T14:21:25.319Z,4.03
2018-06-04T14:23:53.447Z,4.50
2018-06-04T14:26:21.923Z,3.17
2018-06-04T14:28:51.121Z,3.90
2018-06-04T14:31:19.618Z,3.03
2018-06-04T14:33:48.163Z,3.63
2018-06-04T14:36:16.632Z,3.23
2018-06-04T14:38:45.117Z,3.90
2018-06-04T14:41:13.699Z,3.20
2018-06-04T14:43:42.192Z,3.17
2018-06-04T14:46:10.668Z,3.17
2018-06-04T14:48:39.154Z,3.30
2018-06-04T14:51:07.657Z,3.23
2018-06-04T14:53:35.813Z,3.40
2018-06-04T14:56:04.352Z,3.50
2018-06-04T14:58:32.830Z,3.70
2018-06-04T15:01:01.342Z,3.57
2018-06-04T15:03:29.888Z,3.20
2018-06-04T15:05:58.336Z,3.50
2018-06-04T15:08:26.892Z,3.33
2018-06-04T15:10:55.457Z,3.27
2018-06-04T15:15:52.399Z,3.30
2018-06-04T15:18:20.901Z,3.53
2018-06-04T15:20:49.125Z,3.20
2018-06-04T15:23:17.600Z,3.77
2018-06-04T15:25:46.093Z,2.80
2018-06-04T15:28:14.589Z,3.00
2018-06-04T15:30:44.033Z,3.63
2018-06-04T15:33:12.509Z,2.90
2018-06-04T15:35:40.985Z,3.03
2018-06-04T15:38:09.477Z,3.50
2018-06-04T15:40:37.945Z,2.27
2018-06-04T15:43:06.431Z,3.33
2018-06-04T15:45:35.537Z,2.73
2018-06-04T15:48:04.048Z,2.30
2018-06-04T15:50:32.532Z,3.00
2018-06-04T15:53:01.011Z,3.13
2018-06-04T15:55:29.514Z,2.77
2018-06-04T15:57:57.787Z,2.20
2018-06-04T16:00:26.278Z,2.80
2018-06-04T16:02:54.783Z,2.70
2018-06-04T16:05:22.965Z,3.17
2018-06-04T16:07:51.475Z,2.77
2018-06-04T16:10:19.955Z,2.57
2018-06-04T16:12:48.428Z,3.30
2018-06-04T16:15:16.933Z,3.00
2018-06-04T16:17:45.398Z,3.20
2018-06-04T16:20:13.950Z,2.80
2018-06-04T16:22:42.451Z,2.70
2018-06-04T16:25:10.960Z,2.73
2018-06-04T16:27:39.517Z,3.37
2018-06-04T16:30:08.087Z,3.33
2018-06-04T16:32:36.616Z,3.00
2018-06-04T16:35:05.172Z,3.47
2018-06-04T16:37:34.984Z,2.90
2018-06-04T16:40:03.500Z,3.20
2018-06-04T16:42:31.697Z,2.87
2018-06-04T16:45:00.254Z,3.30
2018-06-04T16:47:28.812Z,2.83
2018-06-04T16:49:57.292Z,3.10
2018-06-04T16:52:25.751Z,2.33
2018-06-04T16:54:54.227Z,2.80
2018-06-04T16:57:22.773Z,3.50
2018-06-04T16:59:51.015Z,3.03
2018-06-04T17:02:19.526Z,3.23
2018-06-04T17:04:48.022Z,3.03
2018-06-04T17:07:16.550Z,3.00
2018-06-04T17:09:45.057Z,2.97
2018-06-04T17:12:13.619Z,2.80
2018-06-04T17:14:42.105Z,2.47
2018-06-04T17:17:10.679Z,2.40
2018-06-04T17:19:39.209Z,2.70
2018-06-04T17:22:07.753Z,3.17
2018-06-04T17:24:36.271Z,2.93
2018-06-04T17:27:04.819Z,2.83
2018-06-04T17:29:32.989Z,2.47
2018-06-04T17:32:02.153Z,3.03
2018-06-04T17:34:30.651Z,3.37
2018-06-04T17:36:59.104Z,3.47
2018-06-04T17:39:27.584Z,2.70
2018-06-04T17:41:56.144Z,2.87
2018-06-04T17:44:24.549Z,3.10
2018-06-04T17:46:53.100Z,2.90
2018-06-04T17:49:21.295Z,3.20
2018-06-04T17:51:49.810Z,3.40
2018-06-04T17:54:18.321Z,3.47
2018-06-04T17:56:47.158Z,2.73
2018-06-04T17:59:15.974Z,2.70
2018-06-04T18:01:44.903Z,2.70
2018-06-04T18:04:13.709Z,2.50
2018-06-04T18:06:41.856Z,2.57
2018-06-04T18:09:10.535Z,2.60
2018-06-04T18:11:39.041Z,3.50
2018-06-04T18:14:07.707Z,2.70
2018-06-04T18:16:37.165Z,3.50
2018-06-04T18:19:06.337Z,2.43
2018-06-04T18:21:35.006Z,2.80
2018-06-04T18:24:03.628Z,2.10
2018-06-04T18:26:32.358Z,2.87
2018-06-04T18:29:00.878Z,2.80
2018-06-04T18:31:29.476Z,3.20
2018-06-04T18:33:58.078Z,2.90
2018-06-04T18:36:26.668Z,2.90
2018-06-04T18:38:55.270Z,3.00
2018-06-04T18:41:24.173Z,2.50
2018-06-04T18:43:52.874Z,3.17
2018-06-04T18:46:21.387Z,2.70
2018-06-04T18:48:50.190Z,2.20
2018-06-04T18:51:18.989Z,3.33
2018-06-04T18:53:47.810Z,2.97
2018-06-04T18:56:16.578Z,3.40
2018-06-04T18:58:45.773Z,3.63
2018-06-04T19:01:14.594Z,3.90
2018-06-04T19:03:43.184Z,3.03
2018-06-04T19:06:11.998Z,2.43
2018-06-04T19:08:40.379Z,3.27
2018-06-04T19:11:08.923Z,3.73
2018-06-04T19:13:37.543Z,4.23
2018-06-04T19:16:06.141Z,3.80
2018-06-04T19:18:34.811Z,3.13
2018-06-04T19:21:03.603Z,3.50
2018-06-04T19:23:32.418Z,3.83
2018-06-04T19:26:01.041Z,3.90
2018-06-04T19:28:29.636Z,3.70
2018-06-04T19:30:58.168Z,3.73
2018-06-04T19:33:26.820Z,4.07
2018-06-04T19:35:55.513Z,4.33
2018-06-04T19:38:24.145Z,3.80
2018-06-04T19:40:52.838Z,4.50
2018-06-04T19:43:21.802Z,4.50
2018-06-04T19:45:50.998Z,4.97
2018-06-04T19:48:20.312Z,3.77
2018-06-04T19:50:49.567Z,3.90
2018-06-04T19:53:18.610Z,3.80
2018-06-04T19:55:47.443Z,4.80
2018-06-04T19:58:16.228Z,4.13
2018-06-04T20:00:44.545Z,4.70
2018-06-04T20:03:13.410Z,5.17
2018-06-04T20:05:41.744Z,4.00
2018-06-04T20:08:10.793Z,4.10
2018-06-04T20:10:41.788Z,5.13
2018-06-04T20:13:10.657Z,4.90
2018-06-04T20:15:39.381Z,4.77
2018-06-04T20:18:08.310Z,4.30
2018-06-04T20:20:36.935Z,4.63
2018-06-04T20:23:05.234Z,4.17
2018-06-04T20:25:33.792Z,4.13
2018-06-04T20:28:02.056Z,3.53
2018-06-04T20:30:30.598Z,2.93
2018-06-04T20:32:59.168Z,3.10
2018-06-04T20:35:27.866Z,2.77
2018-06-04T20:37:56.465Z,2.93
2018-06-04T20:40:25.122Z,2.60
2018-06-04T20:42:53.639Z,3.23
2018-06-04T20:45:22.381Z,2.80
2018-06-04T20:47:51.171Z,2.47
2018-06-04T20:50:19.757Z,2.23
2018-06-04T20:52:48.239Z,2.30
2018-06-04T20:55:16.744Z,2.00
2018-06-04T20:57:44.908Z,2.20
2018-06-04T21:00:13.482Z,2.33
2018-06-04T21:02:41.725Z,1.60
2018-06-04T21:07:43.151Z,2.17
2018-06-04T21:10:11.684Z,1.70
2018-06-04T21:12:40.196Z,1.70
2018-06-04T21:15:08.757Z,1.93
2018-06-04T21:17:37.228Z,1.63
2018-06-04T21:20:05.717Z,1.90
2018-06-04T21:22:34.206Z,1.87
2018-06-04T21:25:03.221Z,2.00
2018-06-04T21:27:31.722Z,1.50
2018-06-04T21:30:00.237Z,1.60
2018-06-04T21:32:28.726Z,1.40
2018-06-04T21:34:57.197Z,1.73
2018-06-04T21:37:25.363Z,1.87
2018-06-04T21:39:53.846Z,1.83
2018-06-04T21:42:22.394Z,1.90
2018-06-04T21:44:50.924Z,1.90
2018-06-04T21:47:19.420Z,1.60
2018-06-04T21:49:47.895Z,1.70
2018-06-04T21:52:16.365Z,1.47
2018-06-04T21:54:45.117Z,2.00
2018-06-04T21:57:13.642Z,2.33
2018-06-04T21:59:42.169Z,2.17
2018-06-04T22:02:10.372Z,2.20
2018-06-04T22:04:38.951Z,2.30
2018-06-04T22:07:08.044Z,3.10
2018-06-04T22:09:36.501Z,1.90
2018-06-04T22:12:04.717Z,1.70
2018-06-04T22:14:32.879Z,1.90
2018-06-04T22:17:01.349Z,2.17
2018-06-04T22:19:29.799Z,2.43
2018-06-04T22:21:58.329Z,2.20
2018-06-04T22:24:26.496Z,2.37
2018-06-04T22:26:54.952Z,1.90
2018-06-04T22:29:23.460Z,1.77
2018-06-04T22:31:51.913Z,2.07
2018-06-04T22:34:20.399Z,1.97
2018-06-04T22:36:48.892Z,2.13
2018-06-04T22:39:17.367Z,2.30
2018-06-04T22:41:45.850Z,1.73
2018-06-04T22:44:14.388Z,2.10
2018-06-04T22:46:42.543Z,1.80
2018-06-04T22:49:10.961Z,1.60
2018-06-04T22:51:39.427Z,2.00
2018-06-04T22:54:07.879Z,1.73
2018-06-04T22:56:36.483Z,1.90
2018-06-04T22:59:04.976Z,1.90
2018-06-04T23:01:33.426Z,2.13
2018-06-04T23:04:02.183Z,2.70
2018-06-04T23:06:30.376Z,2.00
2018-06-04T23:08:58.577Z,2.50
2018-06-04T23:11:27.060Z,2.60
2018-06-04T23:13:55.546Z,2.30
2018-06-04T23:16:24.606Z,2.40
2018-06-04T23:18:53.098Z,2.50
2018-06-04T23:21:21.292Z,2.53
2018-06-04T23:23:49.456Z,2.33
2018-06-04T23:26:18.228Z,3.30
2018-06-04T23:28:46.665Z,2.50
2018-06-04T23:31:15.186Z,2.80
2018-06-04T23:33:43.709Z,2.50
2018-06-04T23:36:11.897Z,1.90
2018-06-04T23:38:40.315Z,2.57
2018-06-04T23:41:09.034Z,2.30
2018-06-04T23:43:37.485Z,2.23
2018-06-04T23:46:05.968Z,2.07
2018-06-04T23:48:34.519Z,2.90
2018-06-04T23:51:03.038Z,2.40
2018-06-04T23:53:31.590Z,2.57
2018-06-04T23:55:59.824Z,2.60
2018-06-04T23:58:28.255Z,2.33
